• Join FlightAware (Why Join?)
  • Login
  • US Flag 
Gobble Gobble! 
06:05AM EST


 

Airport Tracker/Info


-or-


 

Live Flight TrackerFlight Track Log ✈ N106RH ✈ 14-Mar-2014 ✈ KJST - KRDU

Flight Track Log - Related Links

Times and Time Zones

All times are in EDT time to prevent confusion due to time zone crossing. See the N106RH flight status page for this flight to view local times or setup timezone preferences in your user account.

Time Position Orientation Groundspeed Altitude Reporting Facility
EDT Latitude Longitude Course Direction KTS MPH feet Rate Location/Type
05:01PM 40.2558 -78.8531 180° South 141 162 5,000  Level Cleveland Center
05:02PM 40.2428 -78.8517 175° South 139 160 5,700 1,740 Climbing Cleveland Center
05:03PM 40.1950 -78.8533 182° South 141 162 7,800 1,740 Climbing Cleveland Center
05:04PM 40.1506 -78.8547 181° South 157 181 9,400 1,500 Climbing Cleveland Center
05:05PM 40.1039 -78.8575 183° South 164 189 10,900 1,500 Climbing Cleveland Center
05:06PM 39.9098 -78.8301 180° South  Level Estimated
05:06PM 40.0556 -78.8611 183° South 170 196 12,600  Level Cleveland Center
05:07PM 40.0064 -78.8644 183° South 176 203 14,300 1,620 Climbing Cleveland Center
05:08PM 39.9456 -78.8661 181° South 181 208 16,000 1,440 Climbing Cleveland Center
05:09PM 39.8931 -78.8694 183° South 187 215 17,300 1,260 Climbing Cleveland Center
05:10PM 39.8358 -78.8733 183° South 205 236 18,700 1,200 Climbing Cleveland Center
05:11PM 39.7758 -78.8758 182° South 215 247 19,900 660 Climbing Cleveland Center
05:12PM 39.7125 -78.8814 184° South 224 258 20,100 60 Climbing Cleveland Center
05:13PM 39.6289 -78.8897 184° South 242 278 20,100  Level Cleveland Center
05:14PM 39.5889 -78.9064 198° South 245 282 20,100  Level Washington Center
05:15PM 39.5239 -78.9278 194° South 245 282 20,100 300 Level Washington Center
05:16PM 39.4625 -78.9572 200° South 245 282 20,800 660 Climbing Washington Center
05:17PM 39.4094 -78.9869 203° Southwest 234 269 21,500 540 Climbing Washington Center
05:18PM 39.3547 -79.0111 199° South 221 254 22,000 300 Climbing Washington Center
05:19PM 39.2975 -79.0406 202° Southwest 215 247 22,100  Climbing Washington Center
05:20PM 39.2383 -79.0728 203° Southwest 215 247 22,100  Level Washington Center
05:21PM 39.1811 -79.1075 205° Southwest 220 253 22,100  Level Washington Center
05:22PM 39.1239 -79.1394 203° Southwest 226 260 22,100  Level Washington Center
05:23PM 39.0644 -79.1739 204° Southwest 226 260 22,100  Level Washington Center
05:24PM 39.0028 -79.2083 203° Southwest 231 266 22,100  Level Washington Center
05:25PM 38.9436 -79.2403 203° Southwest 231 266 22,100  Level Washington Center
05:26PM 38.8800 -79.2744 203° Southwest 237 273 22,100  Level Washington Center
05:27PM 38.8206 -79.3086 204° Southwest 242 278 22,100  Level Washington Center
05:28PM 38.7589 -79.3456 205° Southwest 237 273 22,100  Level Washington Center
05:29PM 38.6975 -79.3769 202° Southwest 237 273 22,100  Level Washington Center
05:30PM 38.6358 -79.4111 203° Southwest 237 273 22,100  Level Washington Center
05:31PM 38.5786 -79.4425 203° Southwest 237 273 22,100  Level Washington Center
05:32PM 38.5150 -79.4764 203° Southwest 242 278 22,100  Level Washington Center
05:33PM 38.4494 -79.5022 197° South 242 278 22,100  Level Washington Center
05:34PM 38.3728 -79.4850 170° South 256 295 22,100  Level Washington Center
05:35PM 38.2906 -79.4542 164° South 270 311 22,100  Level Washington Center
05:36PM 38.2142 -79.4264 164° South 280 322 22,100  Level Washington Center
05:37PM 38.1358 -79.4011 166° South 280 322 22,100  Level Washington Center
05:38PM 38.0592 -79.3814 169° South 280 322 22,100  Level Washington Center
05:39PM 37.9825 -79.3644 170° South 280 322 22,100  Level Washington Center
05:40PM 37.9122 -79.3478 169° South 286 329 22,100  Level Washington Center
05:41PM 37.8358 -79.3256 167° South 286 329 22,100  Level Washington Center
05:42PM 37.7569 -79.3058 169° South 286 329 22,100  Level Washington Center
05:43PM 37.6681 -79.2806 167° South 293 337 22,100  Level Washington Center
05:44PM 37.5894 -79.2583 167° South 293 337 22,100  Level Washington Center
05:45PM 37.5089 -79.2361 168° South 293 337 22,100  Level Washington Center
05:46PM 37.4344 -79.2142 167° South 293 337 22,100  Level Washington Center
05:47PM 37.3536 -79.1947 169° South 293 337 22,100  Level Washington Center
05:48PM 37.2750 -79.1756 169° South 293 337 22,100  Level Washington Center
05:49PM 37.1983 -79.1561 169° South 293 337 22,100 -360 Level Washington Center
05:50PM 37.1239 -79.1372 169° South 293 337 21,500 -1,080 Descending Washington Center
05:51PM 37.0389 -79.1125 167° South 304 350 20,000 -1,680 Descending Washington Center
05:52PM 36.9561 -79.0906 168° South 310 357 18,200 -1,740 Descending Washington Center
05:53PM 36.8672 -79.0708 170° South 315 362 16,600 -1,740 Descending Washington Center
05:54PM 36.7883 -79.0517 169° South 309 356 14,800 -1,920 Descending Washington Center
05:55PM 36.7033 -79.0297 168° South 297 342 12,800 -2,040 Descending Washington Center
05:56PM 36.6225 -79.0106 169° South 291 335 10,800 -1,860 Descending Washington Center
05:57PM 36.5481 -78.9892 167° South 296 341 9,200 -1,500 Descending Washington Center
05:57PM 36.4942 -78.9767 169° South 278 320 8,300 -1,200 Descending Washington Center
05:58PM 36.4736 -78.9681 161° South 286 329 8,000 -480 Descending Washington Center
05:58PM 36.4469 -78.9564 161° South 269 310 8,000 60 Level Washington Center
05:59PM 36.4056 -78.9417 164° South 272 313 8,100  Climbing Washington Center
05:59PM 36.3806 -78.9356 169° South 240 276 8,000  Descending Washington Center
06:00PM 36.3475 -78.9214 161° South 249 287 8,100 60 Climbing Washington Center
06:00PM 36.3144 -78.9147 171° South 237 273 8,100  Level Washington Center
06:01PM 36.2775 -78.8925 154° Southeast 238 274 8,100  Level Washington Center
06:01PM 36.2531 -78.8708 144° Southeast 254 292 8,100 -420 Level Washington Center
06:02PM 36.2289 -78.8389 133° Southeast 248 285 7,700 -1,140 Descending Washington Center
06:02PM 36.2006 -78.8069 138° Southeast 264 304 7,000 -1,380 Descending Washington Center
06:03PM 36.1783 -78.7778 133° Southeast 253 291 6,300 -1,260 Descending Washington Center
06:03PM 36.1519 -78.7483 138° Southeast 260 299 5,900 -300 Descending Washington Center
06:04PM 36.1278 -78.7164 133° Southeast 258 297 6,000  Climbing Washington Center
06:04PM 36.1097 -78.6953 137° Southeast 221 254 5,900 -720 Descending Washington Center
06:05PM 36.0875 -78.6661 133° Southeast 238 274 5,300 -1,620 Descending Washington Center
06:05PM 36.0650 -78.6394 136° Southeast 226 260 4,300 -1,500 Descending Washington Center
06:06PM 36.0361 -78.6306 166° South 232 267 3,800 -1,200 Descending Washington Center
06:06PM 36.0108 -78.6425 201° Southwest 182 209 3,100 -1,020 Descending Washington Center
06:07PM 35.9894 -78.6647 220° Southwest 162 186 2,800 -420 Descending Washington Center
06:07PM 35.9744 -78.6797 219° Southwest 158 182 2,700 -720 Descending Washington Center
06:08PM 35.9419 -78.7194 225° Southwest 158 182 1,800 -780 Descending Washington Center
06:09PM 35.9161 -78.7492 223° Southwest 117 135 1,200 -600 Descending Washington Center
06:10PM 35.8947 -78.7739 223° Southwest 106 122 600 -600 Descending Washington Center
06:12PM 35.8776 -78.7875 231° Southwest  Level Estimated
06:19PM 35.8776 -78.7875 231° Southwest  Level Estimated
06:20PM 35.8776 -78.7875 231° Southwest  Level Estimated
06:21PM 35.8776 -78.7875 231° Southwest  Level Estimated
06:22PM 35.8776 -78.7875 231° Southwest  Level Estimated
06:23PM 35.8776 -78.7875 231° Southwest  Level Estimated
06:24PM 35.8776 -78.7875 231° Southwest  Level Estimated